Time;durP1;ratioP1;P1;durP2;ratioP2;P2;SDS_P1;SDS_P2;PMS_P1;PMS_P2;Temp;Humidity;BMP_temperature;BMP_pressure;BME280_temperature;BME280_humidity;BME280_pressure;Samples;Min_cycle;Max_cycle;Signal;HPM_P1;HPM_P2
2022/09/24 00:00:58;;;;;;;98.95;44.67;;;13.30;99.90;;;;;;4995060;28;20081;-76
2022/09/24 00:03:25;;;;;;;99.35;43.63;;;13.30;99.90;;;;;;4994022;28;20069;-77
2022/09/24 00:05:52;;;;;;;106.00;45.38;;;13.30;99.90;;;;;;4994489;28;20089;-77
2022/09/24 00:08:19;;;;;;;99.82;42.58;;;13.30;99.90;;;;;;4977800;28;20050;-77
2022/09/24 00:10:47;;;;;;;103.57;44.13;;;13.30;99.90;;;;;;4995817;28;20418;-79
2022/09/24 00:13:16;;;;;;;106.65;44.65;;;13.30;99.90;;;;;;4978646;28;20047;-78
2022/09/24 00:15:45;;;;;;;107.00;45.50;;;13.30;99.90;;;;;;4994931;28;20046;-77
2022/09/24 00:18:13;;;;;;;97.35;44.10;;;13.30;99.90;;;;;;4995020;28;20046;-77
2022/09/24 00:20:38;;;;;;;103.13;44.28;;;13.30;99.90;;;;;;4994762;28;20462;-83
2022/09/24 00:23:06;;;;;;;106.80;46.10;;;13.30;99.90;;;;;;4977120;28;20046;-79
2022/09/24 00:28:16;;;;;;;103.47;43.30;;;13.30;99.90;;;;;;4994374;28;20137;-76
2022/09/24 00:30:43;;;;;;;96.85;44.05;;;13.30;99.90;;;;;;4977681;28;20130;-75
2022/09/24 00:33:09;;;;;;;100.30;44.30;;;13.30;99.90;;;;;;4994087;28;20046;-76
2022/09/24 00:35:37;;;;;;;103.60;44.80;;;13.30;99.90;;;;;;4994068;28;20053;-79
2022/09/24 00:38:04;;;;;;;104.50;44.38;;;13.30;99.90;;;;;;4994932;28;20069;-75
2022/09/24 00:40:32;;;;;;;108.13;45.58;;;13.30;99.90;;;;;;4994914;28;20088;-76
2022/09/24 00:42:58;;;;;;;110.05;45.78;;;13.30;99.90;;;;;;4994762;28;20066;-78
2022/09/24 00:45:25;;;;;;;104.68;46.30;;;13.30;99.90;;;;;;4977643;28;20058;-76
2022/09/24 00:47:52;;;;;;;109.88;46.53;;;13.30;99.90;;;;;;4977351;28;20125;-76
2022/09/24 00:50:23;;;;;;;;;;;13.30;99.90;;;;;;4977762;28;20051;-78
2022/09/24 00:53:00;;;;;;;109.05;43.00;;;13.30;99.90;;;;;;4993453;28;19947;-76
2022/09/24 00:55:26;;;;;;;108.82;45.25;;;13.30;99.90;;;;;;4995764;28;20394;-76
2022/09/24 00:57:55;;;;;;;106.13;47.28;;;13.30;99.90;;;;;;4993721;28;20045;-78
2022/09/24 01:00:22;;;;;;;108.88;44.78;;;13.30;99.90;;;;;;4994845;28;20051;-76
2022/09/24 01:02:53;;;;;;;110.07;45.83;;;13.30;99.90;;;;;;4978484;28;20046;-77
2022/09/24 01:05:20;;;;;;;106.07;45.30;;;13.30;99.90;;;;;;4978034;28;20117;-77
2022/09/24 01:07:47;;;;;;;107.68;44.72;;;13.30;99.90;;;;;;4995590;28;20201;-77
2022/09/24 01:10:46;;;;;;;107.30;45.38;;;13.30;99.90;;;;;;4994557;28;20054;-77
2022/09/24 01:13:16;;;;;;;108.55;45.28;;;13.30;99.90;;;;;;4994309;28;20054;-77
2022/09/24 01:15:48;;;;;;;110.53;45.88;;;13.30;99.90;;;;;;4994915;28;20051;-77
2022/09/24 01:18:30;;;;;;;115.32;44.55;;;13.30;99.90;;;;;;4996210;28;20117;-77
2022/09/24 01:21:15;;;;;;;112.10;44.67;;;13.30;99.90;;;;;;4993619;28;20050;-76
2022/09/24 01:24:09;;;;;;;105.80;43.78;;;13.30;99.90;;;;;;4977343;28;20501;-77
2022/09/24 01:26:35;;;;;;;110.22;44.95;;;13.30;99.90;;;;;;4993168;28;20057;-77
2022/09/24 01:29:25;;;;;;;102.25;43.83;;;13.30;99.90;;;;;;4993234;28;20050;-77
2022/09/24 01:32:04;;;;;;;107.95;44.00;;;13.30;99.90;;;;;;4992929;28;20057;-77
2022/09/24 01:34:46;;;;;;;111.10;45.17;;;13.30;99.90;;;;;;4993760;28;20378;-76
2022/09/24 01:37:15;;;;;;;114.30;46.40;;;13.30;99.90;;;;;;4976658;28;20049;-76
2022/09/24 01:39:44;;;;;;;102.85;43.10;;;13.30;99.90;;;;;;4992932;28;20046;-77
2022/09/24 01:42:11;;;;;;;115.63;43.88;;;13.30;99.90;;;;;;4992268;28;20058;-76
2022/09/24 01:44:37;;;;;;;99.88;43.80;;;13.30;99.90;;;;;;4993869;28;20101;-75
2022/09/24 01:47:05;;;;;;;114.22;46.72;;;13.20;99.90;;;;;;4976572;28;20046;-77
2022/09/24 01:49:31;;;;;;;119.25;45.03;;;13.20;99.90;;;;;;4993442;28;20044;-76
2022/09/24 01:52:02;;;;;;;114.83;45.00;;;13.20;99.90;;;;;;4977287;28;20089;-77
2022/09/24 01:54:39;;;;;;;108.57;44.58;;;13.20;99.90;;;;;;4993381;28;20047;-78
2022/09/24 01:57:11;;;;;;;108.57;45.63;;;13.20;99.90;;;;;;4994137;28;20133;-77
2022/09/24 01:59:46;;;;;;;113.65;45.50;;;13.20;99.90;;;;;;4992779;28;20061;-77
2022/09/24 02:02:15;;;;;;;116.00;44.42;;;13.20;99.90;;;;;;4976486;28;20046;-77
2022/09/24 02:04:49;;;;;;;109.45;45.65;;;13.20;99.90;;;;;;4993692;28;20054;-77
2022/09/24 02:07:33;;;;;;;107.97;44.42;;;13.20;99.90;;;;;;4992624;28;20528;-77
2022/09/24 02:09:59;;;;;;;106.63;43.60;;;13.20;99.90;;;;;;4994500;28;20132;-78
2022/09/24 02:12:38;;;;;;;107.78;42.95;;;13.20;99.90;;;;;;4992622;28;20042;-76
2022/09/24 02:15:13;;;;;;;109.78;44.45;;;13.20;99.90;;;;;;4992749;28;20050;-77
2022/09/24 02:17:42;;;;;;;103.32;43.60;;;13.20;99.90;;;;;;4992207;28;20451;-77
2022/09/24 02:20:15;;;;;;;107.07;43.55;;;13.20;99.90;;;;;;4976511;28;20117;-76
2022/09/24 02:22:42;;;;;;;113.25;43.83;;;13.20;99.90;;;;;;4992173;28;20454;-78
2022/09/24 02:25:12;;;;;;;109.20;43.60;;;13.20;99.90;;;;;;4992614;28;20058;-76
2022/09/24 02:27:38;;;;;;;111.30;43.22;;;13.10;99.90;;;;;;4993420;28;20056;-77
2022/09/24 02:30:05;;;;;;;118.73;44.87;;;13.10;99.90;;;;;;4992190;28;20566;-77
2022/09/24 02:32:34;;;;;;;103.97;42.55;;;13.10;99.90;;;;;;4991893;28;20285;-76
2022/09/24 02:35:05;;;;;;;114.78;42.38;;;13.10;99.90;;;;;;4992096;28;20043;-77
2022/09/24 02:37:35;;;;;;;107.88;43.35;;;13.10;99.90;;;;;;4993226;28;20046;-78
2022/09/24 02:40:03;;;;;;;113.72;43.38;;;13.10;99.90;;;;;;4993400;28;20049;-77
2022/09/24 02:42:30;;;;;;;108.85;41.10;;;13.10;99.90;;;;;;4996242;28;20090;-76
2022/09/24 02:44:58;;;;;;;114.10;44.13;;;13.10;99.90;;;;;;4964063;28;20065;-77
2022/09/24 02:47:24;;;;;;;109.75;42.83;;;13.00;99.90;;;;;;4996816;28;20092;-84
2022/09/24 02:49:50;;;;;;;111.70;42.80;;;13.00;99.90;;;;;;4996894;28;20054;-76
2022/09/24 02:52:17;;;;;;;109.05;42.90;;;12.90;99.90;;;;;;4997170;28;20433;-77
2022/09/24 02:54:43;;;;;;;;;;;12.90;99.90;;;;;;4964399;28;20090;-77
2022/09/24 02:57:09;;;;;;;110.25;41.03;;;12.90;99.90;;;;;;4997361;28;20274;-79
2022/09/24 02:59:35;;;;;;;110.10;41.75;;;12.80;99.90;;;;;;4996565;28;20053;-77
2022/09/24 03:02:01;;;;;;;117.13;44.47;;;12.80;99.90;;;;;;4996664;28;20137;-77
2022/09/24 03:04:28;;;;;;;120.18;44.15;;;12.80;99.90;;;;;;4996788;28;20112;-78
2022/09/24 03:06:54;;;;;;;120.95;44.65;;;12.80;99.90;;;;;;4995987;28;20445;-78
2022/09/24 03:09:19;;;;;;;127.10;44.67;;;12.80;99.90;;;;;;4978764;28;20047;-77
2022/09/24 03:11:46;;;;;;;124.65;45.00;;;12.80;99.90;;;;;;4995617;28;20407;-80
2022/09/24 03:14:12;;;;;;;117.50;44.63;;;12.80;99.90;;;;;;4994922;28;20522;-78
2022/09/24 03:16:37;;;;;;;122.18;44.10;;;12.80;99.90;;;;;;4996213;28;20082;-77
2022/09/24 03:19:04;;;;;;;121.47;45.63;;;12.80;99.90;;;;;;4996411;28;20046;-77
2022/09/24 03:21:30;;;;;;;111.28;42.53;;;12.80;99.90;;;;;;4996595;28;20050;-78
2022/09/24 03:23:56;;;;;;;118.22;46.10;;;12.80;99.90;;;;;;4995164;28;20461;-76
2022/09/24 03:26:21;;;;;;;121.57;45.13;;;12.80;99.90;;;;;;4995042;28;20470;-81
2022/09/24 03:28:47;;;;;;;120.70;43.45;;;12.80;99.90;;;;;;4997052;28;20046;-77
2022/09/24 03:31:13;;;;;;;124.50;45.20;;;12.80;99.90;;;;;;4978662;28;20118;-78
2022/09/24 03:33:43;;;;;;;118.68;45.05;;;12.70;99.90;;;;;;4995397;28;20038;-77
2022/09/24 03:36:14;;;;;;;121.72;44.38;;;12.70;99.90;;;;;;4995989;28;20097;-77
2022/09/24 03:38:41;;;;;;;122.00;45.83;;;12.70;99.90;;;;;;4995665;28;20047;-76
2022/09/24 03:41:08;;;;;;;126.40;45.40;;;12.70;99.90;;;;;;4995779;28;20054;-76
2022/09/24 03:43:34;;;;;;;119.78;46.05;;;12.70;99.90;;;;;;4994544;28;20145;-76
2022/09/24 03:46:01;;;;;;;125.03;45.35;;;12.70;99.90;;;;;;4978668;28;20145;-78
2022/09/24 03:48:28;;;;;;;121.85;46.22;;;12.70;99.90;;;;;;4995827;28;20142;-76
2022/09/24 03:50:55;;;;;;;121.57;45.70;;;12.70;99.90;;;;;;4995875;28;20050;-79
2022/09/24 03:53:21;;;;;;;129.73;47.00;;;12.70;99.90;;;;;;4993847;28;20534;-76
2022/09/24 03:55:56;;;;;;;126.28;47.03;;;12.70;99.90;;;;;;4995041;28;20057;-77
2022/09/24 03:58:23;;;;;;;127.38;47.53;;;12.70;99.90;;;;;;4994477;28;20504;-76
2022/09/24 04:00:51;;;;;;;130.85;49.35;;;12.70;99.90;;;;;;4994773;28;20046;-77
2022/09/24 04:03:17;;;;;;;129.13;47.55;;;12.80;99.90;;;;;;4995320;28;20387;-77
2022/09/24 04:05:43;;;;;;;130.07;47.53;;;12.80;99.90;;;;;;4994887;28;20054;-76
2022/09/24 04:08:08;;;;;;;126.25;46.55;;;12.80;99.90;;;;;;4995369;28;20042;-76
2022/09/24 04:10:34;;;;;;;125.47;45.80;;;12.80;99.90;;;;;;4995133;28;20113;-77
2022/09/24 04:13:00;;;;;;;127.90;49.03;;;12.80;99.90;;;;;;4978534;28;20046;-77
2022/09/24 04:15:26;;;;;;;125.97;48.55;;;12.90;99.90;;;;;;4996095;28;20105;-77
2022/09/24 04:17:57;;;;;;;130.90;47.83;;;12.90;99.90;;;;;;4994596;28;20486;-77
2022/09/24 04:20:25;;;;;;;128.52;46.80;;;12.90;99.90;;;;;;4998190;28;20058;-77
2022/09/24 04:22:54;;;;;;;129.25;48.83;;;12.90;99.90;;;;;;5003794;28;20081;-77
2022/09/24 04:25:20;;;;;;;127.88;47.22;;;13.00;99.90;;;;;;4986707;28;20042;-78
2022/09/24 04:27:51;;;;;;;120.82;46.15;;;13.00;99.90;;;;;;4987774;28;20054;-78
2022/09/24 04:30:17;;;;;;;119.78;45.42;;;13.00;99.90;;;;;;5004723;28;20052;-78
2022/09/24 04:32:42;;;;;;;123.20;46.30;;;13.00;99.90;;;;;;5004960;28;20154;-77
2022/09/24 04:35:09;;;;;;;128.23;47.20;;;13.00;99.90;;;;;;4987781;28;20050;-83
2022/09/24 04:37:35;;;;;;;130.30;46.83;;;13.10;99.90;;;;;;4982572;28;20052;-79
2022/09/24 04:40:03;;;;;;;125.20;45.10;;;13.00;99.90;;;;;;4984152;28;20057;-76
2022/09/24 04:42:29;;;;;;;123.45;45.65;;;13.10;99.90;;;;;;4999684;28;20063;-77
2022/09/24 04:44:55;;;;;;;125.78;47.88;;;13.10;99.90;;;;;;4964936;28;20085;-76
2022/09/24 04:47:23;;;;;;;122.05;46.45;;;13.10;99.90;;;;;;4980423;28;20043;-77
2022/09/24 04:49:48;;;;;;;116.63;44.72;;;13.10;99.90;;;;;;4995379;28;20053;-76
2022/09/24 04:52:14;;;;;;;116.88;45.65;;;13.10;99.90;;;;;;4978107;28;20050;-76
2022/09/24 04:54:45;;;;;;;116.45;44.03;;;13.10;99.90;;;;;;4977779;28;20057;-77
2022/09/24 04:57:13;;;;;;;120.85;45.42;;;13.10;99.90;;;;;;4994609;28;20081;-79
2022/09/24 04:59:39;;;;;;;117.55;43.47;;;13.10;99.90;;;;;;4977441;28;20046;-76
2022/09/24 05:02:07;;;;;;;123.72;45.78;;;13.10;99.90;;;;;;4994490;28;20046;-75
2022/09/24 05:04:34;;;;;;;111.05;43.65;;;13.20;99.90;;;;;;4992450;28;20053;-76
2022/09/24 05:07:00;;;;;;;115.97;44.63;;;13.10;99.90;;;;;;4977569;28;20062;-76
2022/09/24 05:09:26;;;;;;;110.28;40.90;;;13.20;99.90;;;;;;4976918;28;20054;-77
2022/09/24 05:11:51;;;;;;;108.35;41.35;;;13.20;99.90;;;;;;4993257;28;20446;-77
2022/09/24 05:14:17;;;;;;;109.00;41.25;;;13.20;99.90;;;;;;4976932;28;20104;-79
2022/09/24 05:16:43;;;;;;;107.30;41.15;;;13.20;99.90;;;;;;4994834;28;20050;-77
2022/09/24 05:19:09;;;;;;;108.47;41.70;;;13.20;99.90;;;;;;4976986;28;20050;-76
2022/09/24 05:21:35;;;;;;;107.90;41.63;;;13.20;99.90;;;;;;4960857;28;20077;-77
2022/09/24 05:24:00;;;;;;;99.82;38.03;;;13.20;99.90;;;;;;4977131;28;20046;-77
2022/09/24 05:29:11;;;;;;;100.63;40.13;;;13.20;99.90;;;;;;4993259;28;20189;-76
2022/09/24 05:31:36;;;;;;;107.75;39.20;;;13.20;99.90;;;;;;4977304;28;20050;-77
2022/09/24 05:34:02;;;;;;;99.95;38.67;;;13.20;99.90;;;;;;4992836;28;20049;-79
2022/09/24 05:36:28;;;;;;;104.57;39.55;;;13.20;99.90;;;;;;4992695;28;20129;-76
2022/09/24 05:38:54;;;;;;;103.57;38.53;;;13.20;99.90;;;;;;4976910;28;20054;-77
2022/09/24 05:41:20;;;;;;;101.13;37.03;;;13.20;99.90;;;;;;4993665;28;20309;-77
2022/09/24 05:43:46;;;;;;;106.25;38.33;;;13.30;99.90;;;;;;4993210;28;20097;-76
2022/09/24 05:46:12;;;;;;;104.93;39.58;;;13.30;99.90;;;;;;4993132;28;20054;-76
2022/09/24 05:48:38;;;;;;;93.63;36.17;;;13.30;99.90;;;;;;4976506;28;20043;-79
2022/09/24 05:51:04;;;;;;;94.00;36.00;;;13.30;99.90;;;;;;4992754;28;20391;-77
2022/09/24 05:53:30;;;;;;;101.47;39.03;;;13.30;99.90;;;;;;4992519;28;20044;-75
2022/09/24 05:55:57;;;;;;;97.07;36.75;;;13.30;99.90;;;;;;4976625;28;20141;-77
2022/09/24 05:58:23;;;;;;;97.32;35.63;;;13.30;99.90;;;;;;4992799;28;20166;-77
2022/09/24 06:00:50;;;;;;;96.43;35.67;;;13.40;99.90;;;;;;4992764;28;20046;-76
2022/09/24 06:03:17;;;;;;;96.80;35.90;;;13.30;99.90;;;;;;4993187;28;20054;-76
2022/09/24 06:05:47;;;;;;;;;;;13.40;99.90;;;;;;4994164;28;20051;-78
2022/09/24 06:08:15;;;;;;;96.82;34.05;;;13.30;99.90;;;;;;5008809;28;19965;-77
2022/09/24 06:10:42;;;;;;;97.75;35.15;;;13.40;99.90;;;;;;4992567;28;20054;-77
2022/09/24 06:13:10;;;;;;;94.93;34.33;;;13.40;99.90;;;;;;4992403;28;20128;-80
2022/09/24 06:15:37;;;;;;;90.30;33.58;;;13.40;99.90;;;;;;4992301;28;20125;-77
2022/09/24 06:18:03;;;;;;;;;;;13.50;99.90;;;;;;4997300;28;20060;-79
2022/09/24 06:20:29;;;;;;;102.50;34.22;;;13.50;99.90;;;;;;4997472;28;19922;-77
2022/09/24 06:22:59;;;;;;;94.57;34.30;;;13.40;99.90;;;;;;4997261;28;20184;-76
2022/09/24 06:25:25;;;;;;;99.15;35.97;;;13.50;99.90;;;;;;4997882;28;20308;-76
2022/09/24 06:28:00;;;;;;;96.65;33.55;;;13.50;99.90;;;;;;4996673;28;20046;-76
2022/09/24 06:30:32;;;;;;;97.15;35.47;;;13.50;99.90;;;;;;4996172;28;20057;-76
2022/09/24 06:33:07;;;;;;;85.93;31.90;;;13.50;99.90;;;;;;4980386;28;20050;-76
2022/09/24 06:35:37;;;;;;;94.00;33.10;;;13.50;99.90;;;;;;4997971;28;20058;-75
2022/09/24 06:38:04;;;;;;;94.95;34.30;;;13.60;99.90;;;;;;4997075;28;20132;-77
2022/09/24 06:40:30;;;;;;;92.60;33.10;;;13.60;99.90;;;;;;4996432;28;20043;-76
2022/09/24 06:42:56;;;;;;;92.30;33.92;;;13.60;99.90;;;;;;4997432;28;20066;-78
2022/09/24 06:45:24;;;;;;;93.70;32.72;;;13.50;99.90;;;;;;4997612;28;20126;-76
2022/09/24 06:47:54;;;;;;;93.82;33.80;;;13.60;99.90;;;;;;4980265;28;20089;-76
2022/09/24 06:50:21;;;;;;;92.90;32.60;;;13.70;99.90;;;;;;4996353;28;20046;-76
2022/09/24 06:52:47;;;;;;;;;;;13.70;99.90;;;;;;4996491;28;20073;-77
2022/09/24 06:55:14;;;;;;;86.93;31.80;;;13.70;99.90;;;;;;4995958;28;19929;-77
2022/09/24 06:57:40;;;;;;;88.20;32.10;;;13.70;99.90;;;;;;4995811;28;20058;-76
2022/09/24 07:00:06;;;;;;;83.95;31.73;;;13.70;99.90;;;;;;4996922;28;20042;-78
2022/09/24 07:02:32;;;;;;;94.07;33.38;;;13.70;99.90;;;;;;4995492;28;20065;-76
2022/09/24 07:04:57;;;;;;;89.90;31.65;;;13.70;99.90;;;;;;4996087;28;20058;-78
2022/09/24 07:07:30;;;;;;;87.82;31.85;;;13.70;99.90;;;;;;4995398;28;20047;-82
2022/09/24 07:09:56;;;;;;;86.60;30.55;;;13.80;99.90;;;;;;4996699;28;20053;-75
2022/09/24 07:12:24;;;;;;;88.57;32.63;;;13.70;99.90;;;;;;4979404;28;20398;-78
2022/09/24 07:14:49;;;;;;;;;;;13.70;99.90;;;;;;4979513;28;20137;-80
2022/09/24 07:17:15;;;;;;;86.60;29.73;;;13.80;99.90;;;;;;4995487;28;20148;-78
2022/09/24 07:19:41;;;;;;;80.10;30.42;;;13.80;99.90;;;;;;4964078;28;20050;-80
2022/09/24 07:22:07;;;;;;;86.70;30.50;;;13.80;99.90;;;;;;4996022;28;20135;-81
2022/09/24 07:24:33;;;;;;;92.75;33.08;;;13.80;99.90;;;;;;4997944;28;20208;-83
2022/09/24 07:26:59;;;;;;;87.50;31.27;;;13.70;99.90;;;;;;4980072;28;20133;-82
2022/09/24 07:29:28;;;;;;;84.38;29.42;;;13.70;99.90;;;;;;4964186;28;20153;-82
2022/09/24 07:31:56;;;;;;;89.75;30.75;;;13.70;99.90;;;;;;4998728;28;20174;-81
2022/09/24 07:34:22;;;;;;;82.63;29.25;;;13.70;99.90;;;;;;4998712;28;20104;-81
2022/09/24 07:36:48;;;;;;;87.07;29.63;;;13.70;99.90;;;;;;5001003;28;20085;-81
2022/09/24 07:39:14;;;;;;;81.60;29.33;;;13.70;99.90;;;;;;5008806;28;20050;-82
2022/09/24 07:41:41;;;;;;;84.00;29.00;;;13.70;99.90;;;;;;4990696;28;20043;-81
2022/09/24 07:44:08;;;;;;;88.20;28.42;;;13.70;99.90;;;;;;5006471;28;20054;-80
2022/09/24 07:46:34;;;;;;;88.28;29.25;;;13.70;99.90;;;;;;4990303;28;20057;-82
2022/09/24 07:49:00;;;;;;;83.65;28.92;;;13.70;99.90;;;;;;5004329;28;20055;-80
2022/09/24 07:51:27;;;;;;;83.35;26.98;;;13.70;99.90;;;;;;5002498;28;20497;-80
2022/09/24 07:53:57;;;;;;;82.70;29.27;;;13.70;99.90;;;;;;5000390;28;20057;-80
2022/09/24 07:56:24;;;;;;;79.10;27.65;;;13.70;99.90;;;;;;4999496;28;20089;-80
2022/09/24 07:58:52;;;;;;;;;;;13.70;99.90;;;;;;4982179;28;20096;-79
2022/09/24 08:01:19;;;;;;;80.30;27.85;;;13.70;99.90;;;;;;4995778;28;20012;-78
2022/09/24 08:03:45;;;;;;;91.82;30.77;;;13.60;99.90;;;;;;4978307;28;20058;-78
2022/09/24 08:06:12;;;;;;;53.20;19.33;;;13.60;99.90;;;;;;4995955;28;20053;-79
2022/09/24 08:08:38;;;;;;;80.00;27.50;;;13.60;99.90;;;;;;4996921;28;20070;-80
2022/09/24 08:11:05;;;;;;;68.72;24.15;;;13.60;99.90;;;;;;4994571;28;20550;-79
2022/09/24 08:13:33;;;;;;;59.25;20.98;;;13.60;99.90;;;;;;4994728;28;20042;-80
2022/09/24 08:15:59;;;;;;;68.88;22.83;;;13.70;99.90;;;;;;4995353;28;20058;-79
2022/09/24 08:18:26;;;;;;;56.97;19.40;;;13.70;99.90;;;;;;4995576;28;20482;-79
2022/09/24 08:20:52;;;;;;;56.13;19.25;;;13.70;99.90;;;;;;4995778;28;20057;-77
2022/09/24 08:23:19;;;;;;;55.05;19.85;;;13.80;99.90;;;;;;4993916;28;20463;-76
2022/09/24 08:25:46;;;;;;;53.17;19.55;;;13.80;99.90;;;;;;4993645;28;20109;-76
2022/09/24 08:28:11;;;;;;;56.72;19.80;;;13.90;99.90;;;;;;4994027;28;20113;-77
2022/09/24 08:30:39;;;;;;;57.60;20.52;;;14.00;99.90;;;;;;4995085;28;20050;-79
2022/09/24 08:33:14;;;;;;;52.47;19.13;;;14.10;99.90;;;;;;4995287;28;20208;-77
2022/09/24 08:35:43;;;;;;;50.15;19.42;;;14.10;99.90;;;;;;4978911;28;20386;-76
2022/09/24 08:38:09;;;;;;;48.92;18.50;;;14.10;99.90;;;;;;4977635;28;20050;-78
2022/09/24 08:40:57;;;;;;;43.70;18.00;;;14.20;99.90;;;;;;4993029;28;20081;-77
2022/09/24 08:44:04;;;;;;;54.03;18.73;;;14.20;99.90;;;;;;4980147;28;20050;-77
2022/09/24 08:49:30;;;;;;;45.97;17.05;;;14.40;99.90;;;;;;4994653;28;20115;-76
2022/09/24 08:52:04;;;;;;;47.67;19.10;;;14.40;99.90;;;;;;4994410;28;20613;-76
2022/09/24 08:54:34;;;;;;;43.55;17.10;;;14.40;99.90;;;;;;4993048;28;20173;-77
2022/09/24 08:57:10;;;;;;;41.90;17.00;;;14.60;99.90;;;;;;4994295;28;20478;-78
2022/09/24 08:59:39;;;;;;;42.55;16.52;;;14.60;99.90;;;;;;4994598;28;20073;-78
2022/09/24 09:02:17;;;;;;;48.75;18.38;;;14.60;99.90;;;;;;4976807;28;20057;-78
2022/09/24 09:05:01;;;;;;;45.95;16.30;;;14.60;99.90;;;;;;4994232;28;20065;-79
2022/09/24 09:07:44;;;;;;;43.50;16.77;;;14.60;99.90;;;;;;4994644;28;20046;-78
2022/09/24 09:10:15;;;;;;;38.75;15.27;;;14.70;99.90;;;;;;4993433;28;20129;-77
2022/09/24 09:12:40;;;;;;;40.33;14.80;;;14.70;99.90;;;;;;4993639;28;20529;-78
2022/09/24 09:15:23;;;;;;;40.10;13.73;;;14.80;99.90;;;;;;4992915;28;20133;-79
2022/09/24 09:17:54;;;;;;;33.33;10.52;;;14.80;99.90;;;;;;4994692;28;20173;-79
2022/09/24 09:20:38;;;;;;;28.05;9.48;;;14.80;99.90;;;;;;4992868;28;20081;-77
2022/09/24 09:23:17;;;;;;;26.98;8.73;;;14.80;99.90;;;;;;4992661;28;20046;-78
2022/09/24 09:25:51;;;;;;;30.30;9.38;;;14.80;99.90;;;;;;4994133;28;20129;-77
2022/09/24 09:28:17;;;;;;;30.17;9.10;;;14.80;99.90;;;;;;4994358;28;20086;-77
2022/09/24 09:30:55;;;;;;;27.35;9.23;;;14.90;99.90;;;;;;4993790;28;20065;-77
2022/09/24 09:33:36;;;;;;;26.23;7.25;;;14.90;99.90;;;;;;4994488;28;20382;-76
2022/09/24 09:36:20;;;;;;;28.27;8.15;;;14.80;99.90;;;;;;4993617;28;20053;-77
2022/09/24 09:39:03;;;;;;;26.90;7.93;;;14.80;99.90;;;;;;5008729;28;20486;-78
2022/09/24 09:41:39;;;;;;;22.10;6.78;;;14.80;99.90;;;;;;4994328;28;20046;-78
2022/09/24 09:44:19;;;;;;;20.60;7.10;;;14.80;99.90;;;;;;4993631;28;20050;-77
2022/09/24 09:47:11;;;;;;;20.17;5.70;;;14.80;99.90;;;;;;5008860;28;20276;-75
2022/09/24 09:49:39;;;;;;;20.55;5.35;;;14.80;99.90;;;;;;4992403;28;20101;-76
2022/09/24 09:52:17;;;;;;;21.25;4.80;;;14.70;99.90;;;;;;5008024;28;20437;-75
2022/09/24 09:54:43;;;;;;;18.70;3.80;;;14.80;99.90;;;;;;4993456;28;20054;-78
2022/09/24 09:57:18;;;;;;;19.20;2.50;;;14.80;99.90;;;;;;4993851;28;20359;-75
2022/09/24 09:59:53;;;;;;;18.70;2.72;;;14.80;99.90;;;;;;4993390;28;20046;-77
2022/09/24 10:02:25;;;;;;;23.48;2.78;;;14.80;99.90;;;;;;4993818;28;20088;-75
2022/09/24 10:04:55;;;;;;;20.23;2.90;;;14.80;99.90;;;;;;4992427;28;20054;-74
2022/09/24 10:07:21;;;;;;;15.77;1.70;;;14.80;99.90;;;;;;4993283;28;20491;-76
2022/09/24 10:10:17;;;;;;;11.45;2.13;;;14.80;99.90;;;;;;4994087;28;20066;-75
2022/09/24 10:12:43;;;;;;;13.13;2.13;;;14.90;99.90;;;;;;4993633;28;20426;-75
2022/09/24 10:15:19;;;;;;;12.88;2.00;;;15.10;99.90;;;;;;4977418;28;20143;-76
2022/09/24 10:17:48;;;;;;;17.47;2.07;;;15.20;99.90;;;;;;4993717;28;20130;-76
2022/09/24 10:20:26;;;;;;;14.07;1.35;;;15.30;99.90;;;;;;4979949;28;20294;-75
2022/09/24 10:22:57;;;;;;;14.30;2.15;;;15.30;99.90;;;;;;4980287;28;20046;-77
2022/09/24 10:25:27;;;;;;;20.00;1.92;;;15.40;99.90;;;;;;4999103;28;20054;-76
2022/09/24 10:30:32;;;;;;;12.45;1.83;;;15.40;99.90;;;;;;4998544;28;20170;-75
2022/09/24 10:30:56;;;;;;;10.13;1.70;;;15.40;99.90;;;;;;4995704;28;20061;-74
2022/09/24 10:33:22;;;;;;;16.25;1.85;;;15.40;99.90;;;;;;4997651;28;20043;-73
2022/09/24 10:35:48;;;;;;;21.90;1.88;;;15.40;99.90;;;;;;4995792;28;20065;-75
2022/09/24 10:38:20;;;;;;;18.75;1.60;;;15.40;99.90;;;;;;4996336;28;20058;-75
2022/09/24 10:40:46;;;;;;;19.83;2.20;;;15.40;99.90;;;;;;4994601;28;20046;-74
2022/09/24 10:43:20;;;;;;;17.15;2.50;;;15.30;99.90;;;;;;4975918;28;20069;-74
2022/09/24 10:45:55;;;;;;;12.15;1.75;;;15.40;99.90;;;;;;4993449;28;20050;-74
2022/09/24 10:48:26;;;;;;;17.35;1.95;;;15.50;99.90;;;;;;4994595;28;20042;-73
2022/09/24 10:51:27;;;;;;;20.02;2.42;;;15.40;99.90;;;;;;4993551;28;20050;-74
2022/09/24 10:54:24;;;;;;;16.88;1.80;;;15.10;99.90;;;;;;4974654;28;20054;-74
2022/09/24 10:56:54;;;;;;;19.55;2.20;;;15.20;99.90;;;;;;4992757;28;20439;-75
2022/09/24 10:59:46;;;;;;;11.68;1.58;;;15.20;99.90;;;;;;4992386;28;20046;-77
2022/09/24 11:02:12;;;;;;;13.93;2.05;;;15.20;99.90;;;;;;4992914;28;20471;-75
2022/09/24 11:04:58;;;;;;;9.18;1.20;;;15.20;99.90;;;;;;4997465;28;20057;-74
2022/09/24 11:07:40;;;;;;;24.33;2.33;;;15.20;99.90;;;;;;4995463;28;20057;-80
2022/09/24 11:10:41;;;;;;;16.90;1.50;;;15.00;99.90;;;;;;4996971;28;20109;-76
2022/09/24 11:13:31;;;;;;;17.52;1.60;;;15.10;99.90;;;;;;4996455;28;20461;-77
2022/09/24 11:16:29;;;;;;;18.90;1.52;;;14.90;99.90;;;;;;5011321;28;20080;-77
2022/09/24 11:19:25;;;;;;;13.30;1.52;;;14.50;99.90;;;;;;5011394;28;20051;-76
2022/09/24 11:22:14;;;;;;;15.05;1.98;;;14.40;99.90;;;;;;4996712;28;20046;-82
2022/09/24 11:24:45;;;;;;;20.73;2.15;;;14.40;99.90;;;;;;4996695;28;20115;-75
2022/09/24 11:27:14;;;;;;;14.38;1.80;;;14.30;99.90;;;;;;4995590;28;20051;-76
2022/09/24 11:29:58;;;;;;;15.52;1.60;;;14.30;99.90;;;;;;4996388;28;20054;-75
2022/09/24 11:32:42;;;;;;;13.02;1.67;;;14.30;99.90;;;;;;4996844;28;20082;-81
2022/09/24 11:35:17;;;;;;;13.15;1.55;;;14.20;99.90;;;;;;4996097;28;20134;-75
2022/09/24 11:38:09;;;;;;;11.57;1.27;;;14.40;99.90;;;;;;5010917;28;20459;-74
2022/09/24 11:40:51;;;;;;;14.45;1.80;;;14.20;99.90;;;;;;4995711;28;20490;-75
2022/09/24 11:43:35;;;;;;;14.63;1.42;;;14.10;99.90;;;;;;5010389;28;20054;-76
2022/09/24 11:46:24;;;;;;;10.68;1.60;;;14.30;99.90;;;;;;4996069;28;20065;-76
2022/09/24 11:49:16;;;;;;;12.63;1.35;;;14.40;99.90;;;;;;4996486;28;20136;-79
2022/09/24 11:51:42;;;;;;;9.43;1.60;;;14.50;99.90;;;;;;4996281;28;20429;-77
2022/09/24 11:54:28;;;;;;;12.25;1.42;;;14.70;99.90;;;;;;4996093;28;20050;-76
2022/09/24 11:57:04;;;;;;;9.43;1.23;;;14.70;99.90;;;;;;4995769;28;20035;-75
2022/09/24 11:59:45;;;;;;;4.82;0.90;;;14.90;99.90;;;;;;4995840;28;20050;-76
2022/09/24 12:02:18;;;;;;;9.15;0.70;;;15.00;99.90;;;;;;4995223;28;20057;-78
2022/09/24 12:04:55;;;;;;;7.10;1.15;;;15.00;99.90;;;;;;4994801;28;20482;-79
2022/09/24 12:07:54;;;;;;;9.43;0.85;;;15.00;99.90;;;;;;4994758;28;20502;-78
2022/09/24 12:10:26;;;;;;;4.57;0.80;;;15.10;99.90;;;;;;4996184;28;20050;-79
2022/09/24 12:13:03;;;;;;;5.07;0.60;;;15.10;99.90;;;;;;4994419;28;20402;-77
2022/09/24 12:15:44;;;;;;;3.08;0.40;;;15.10;99.90;;;;;;4993261;28;20047;-77
2022/09/24 12:18:23;;;;;;;6.18;0.60;;;15.40;99.90;;;;;;4994216;28;20054;-79
2022/09/24 12:21:00;;;;;;;5.75;0.47;;;15.50;99.90;;;;;;4994636;28;20116;-75
2022/09/24 12:23:29;;;;;;;5.00;0.80;;;15.60;99.90;;;;;;4993868;28;20047;-75
2022/09/24 12:25:56;;;;;;;3.55;0.40;;;15.60;99.90;;;;;;4995523;28;20487;-79
2022/09/24 12:34:41;;;;;;;5.15;0.50;;;15.80;99.90;;;;;;4994161;28;20062;-81
2022/09/24 12:37:11;;;;;;;8.85;0.65;;;15.90;99.90;;;;;;4994681;28;20042;-78
2022/09/24 12:39:51;;;;;;;2.92;0.60;;;16.10;99.90;;;;;;4993142;28;20560;-78
2022/09/24 12:42:20;;;;;;;4.90;0.50;;;16.10;99.90;;;;;;4977365;28;20409;-76
2022/09/24 12:44:53;;;;;;;11.10;1.23;;;15.90;99.90;;;;;;4977728;28;20054;-82
2022/09/24 12:47:25;;;;;;;8.38;0.50;;;16.10;99.90;;;;;;4995376;28;20112;-79
2022/09/24 12:49:58;;;;;;;4.65;0.50;;;16.10;99.90;;;;;;4995363;28;20125;-78
2022/09/24 12:52:38;;;;;;;8.73;0.60;;;16.00;99.90;;;;;;4994268;28;20494;-81
2022/09/24 12:55:17;;;;;;;9.05;0.60;;;15.80;99.90;;;;;;4993773;28;20054;-79
2022/09/24 12:58:09;;;;;;;8.82;0.73;;;15.60;99.90;;;;;;4994679;28;20062;-76
2022/09/24 13:00:41;;;;;;;7.53;0.85;;;15.50;99.90;;;;;;4957339;28;20066;-79
2022/09/24 13:03:37;;;;;;;12.02;1.02;;;15.50;99.90;;;;;;4994603;28;20050;-85